Time;durP1;ratioP1;P1;durP2;ratioP2;P2;SDS_P1;SDS_P2;PMS_P1;PMS_P2;Temp;Humidity;BMP_temperature;BMP_pressure;BME280_temperature;BME280_humidity;BME280_pressure;Samples;Min_cycle;Max_cycle;Signal;HPM_P1;HPM_P2
2022/03/08 00:00:32;;;;;;;79.28;48.72;;;4.90;99.90;;;;;;5098675;28;20503;-77
2022/03/08 00:02:59;;;;;;;169.52;106.32;;;4.90;99.90;;;;;;5098881;28;20553;-78
2022/03/08 00:05:26;;;;;;;120.60;79.57;;;4.90;99.90;;;;;;5100262;28;20032;-77
2022/03/08 00:07:53;;;;;;;51.65;34.78;;;4.90;99.90;;;;;;5099303;28;20051;-77
2022/03/08 00:10:19;;;;;;;110.75;75.50;;;4.90;99.90;;;;;;5100101;28;20028;-78
2022/03/08 00:12:47;;;;;;;54.78;34.88;;;5.00;99.90;;;;;;5099899;28;20016;-77
2022/03/08 00:15:17;;;;;;;43.35;28.02;;;5.00;99.90;;;;;;5099722;28;20031;-78
2022/03/08 00:17:43;;;;;;;43.93;26.70;;;4.90;99.90;;;;;;5098577;28;20073;-77
2022/03/08 00:20:09;;;;;;;42.10;29.10;;;4.90;99.90;;;;;;5099728;28;20361;-77
2022/03/08 00:22:36;;;;;;;41.75;27.38;;;5.00;99.90;;;;;;5099664;28;20046;-77
2022/03/08 00:25:04;;;;;;;40.42;26.10;;;5.10;99.90;;;;;;5098415;28;20017;-77
2022/03/08 00:27:30;;;;;;;39.17;26.33;;;5.10;99.90;;;;;;5099623;28;20032;-77
2022/03/08 00:29:56;;;;;;;40.55;25.65;;;5.20;99.90;;;;;;5099367;28;20069;-78
2022/03/08 00:32:22;;;;;;;33.97;22.90;;;5.20;99.90;;;;;;5099531;28;20399;-78
2022/03/08 00:34:48;;;;;;;36.28;24.08;;;5.30;99.90;;;;;;5099446;28;20021;-77
2022/03/08 00:37:15;;;;;;;35.28;23.60;;;5.30;99.90;;;;;;5098394;28;20158;-77
2022/03/08 00:39:41;;;;;;;37.85;25.15;;;5.30;99.90;;;;;;5099458;28;20484;-78
2022/03/08 00:42:11;;;;;;;36.58;24.08;;;5.30;99.90;;;;;;5097895;28;20025;-77
2022/03/08 00:44:41;;;;;;;34.85;22.98;;;5.30;99.90;;;;;;5099322;28;20046;-77
2022/03/08 00:47:09;;;;;;;35.72;23.77;;;5.30;99.90;;;;;;5097928;28;20028;-77
2022/03/08 00:49:35;;;;;;;33.63;22.77;;;5.30;99.90;;;;;;5098509;28;20032;-78
2022/03/08 00:52:01;;;;;;;37.05;25.13;;;5.20;99.90;;;;;;5098217;28;20028;-77
2022/03/08 00:54:27;;;;;;;42.97;23.95;;;5.20;99.90;;;;;;5099152;28;20476;-77
2022/03/08 00:56:53;;;;;;;42.40;25.70;;;5.20;99.90;;;;;;5097694;28;20373;-77
2022/03/08 00:59:19;;;;;;;41.15;24.48;;;5.10;99.90;;;;;;5098972;28;20024;-77
2022/03/08 01:01:45;;;;;;;37.67;25.08;;;5.10;99.90;;;;;;5081308;28;20024;-77
2022/03/08 01:04:11;;;;;;;36.00;25.15;;;5.00;99.90;;;;;;5097941;28;20130;-77
2022/03/08 01:06:37;;;;;;;36.92;24.15;;;5.00;99.90;;;;;;5099328;28;20488;-77
2022/03/08 01:09:03;;;;;;;38.63;25.88;;;5.00;99.90;;;;;;5098970;28;20024;-77
2022/03/08 01:11:29;;;;;;;36.65;24.77;;;4.90;99.90;;;;;;5097426;28;20078;-77
2022/03/08 01:13:55;;;;;;;37.88;25.60;;;4.90;99.90;;;;;;5097038;28;20024;-77
2022/03/08 01:16:21;;;;;;;36.65;24.58;;;4.90;99.90;;;;;;5098189;28;20032;-77
2022/03/08 01:18:48;;;;;;;39.00;25.10;;;5.00;99.90;;;;;;5096226;28;20115;-77
2022/03/08 01:21:14;;;;;;;33.05;23.98;;;5.00;99.90;;;;;;5097329;28;20434;-77
2022/03/08 01:23:43;;;;;;;34.50;24.15;;;5.10;99.90;;;;;;5097152;28;20024;-78
2022/03/08 01:26:09;;;;;;;35.83;23.58;;;5.10;99.90;;;;;;5097338;28;20544;-77
2022/03/08 01:28:35;;;;;;;35.55;24.33;;;5.20;99.90;;;;;;5097078;28;20035;-77
2022/03/08 01:31:01;;;;;;;35.05;24.52;;;5.20;99.90;;;;;;5097181;28;20063;-77
2022/03/08 01:33:27;;;;;;;33.88;24.50;;;5.30;99.90;;;;;;5097247;28;20017;-78
2022/03/08 01:35:55;;;;;;;33.53;22.52;;;5.30;99.90;;;;;;5098283;28;20031;-78
2022/03/08 01:38:21;;;;;;;32.58;23.88;;;5.30;99.90;;;;;;5097020;28;20040;-77
2022/03/08 01:40:47;;;;;;;34.15;23.85;;;5.30;99.90;;;;;;5098278;28;20070;-78
2022/03/08 01:43:13;;;;;;;38.00;24.70;;;5.30;99.90;;;;;;5098150;28;20017;-78
2022/03/08 01:45:40;;;;;;;36.38;24.27;;;5.30;99.90;;;;;;5098082;28;20031;-78
2022/03/08 01:48:05;;;;;;;33.05;23.42;;;5.30;99.90;;;;;;5096772;28;20045;-78
2022/03/08 01:50:31;;;;;;;36.00;24.73;;;5.30;99.90;;;;;;5096863;28;20031;-77
2022/03/08 01:52:58;;;;;;;34.92;25.80;;;5.30;99.90;;;;;;5098015;28;20028;-78
2022/03/08 01:55:25;;;;;;;33.80;23.77;;;5.20;99.90;;;;;;5096838;28;20028;-78
2022/03/08 01:57:52;;;;;;;38.17;24.52;;;5.20;99.90;;;;;;5098016;28;20016;-77
2022/03/08 02:00:23;;;;;;;32.72;23.33;;;5.10;99.90;;;;;;5097675;28;20032;-78
2022/03/08 02:02:50;;;;;;;32.97;23.30;;;5.10;99.90;;;;;;5096579;28;20097;-77
2022/03/08 02:05:16;;;;;;;38.65;20.92;;;5.10;99.90;;;;;;5096666;28;20024;-78
2022/03/08 02:07:42;;;;;;;34.28;22.40;;;5.10;99.90;;;;;;5096434;28;20065;-77
2022/03/08 02:10:09;;;;;;;33.50;23.25;;;5.20;99.90;;;;;;5097759;28;20028;-78
2022/03/08 02:12:36;;;;;;;35.80;22.75;;;5.20;99.90;;;;;;5097587;28;20042;-77
2022/03/08 02:15:23;;;;;;;32.75;23.38;;;5.20;99.90;;;;;;5096106;28;20063;-78
2022/03/08 02:17:49;;;;;;;34.63;22.80;;;5.20;99.90;;;;;;5098104;28;20379;-77
2022/03/08 02:20:17;;;;;;;30.77;21.05;;;5.10;99.90;;;;;;5097713;28;20024;-78
2022/03/08 02:22:44;;;;;;;30.02;22.40;;;5.10;99.90;;;;;;5097757;28;20105;-78
2022/03/08 02:25:11;;;;;;;35.33;21.58;;;5.10;99.90;;;;;;5096173;28;20020;-78
2022/03/08 02:27:53;;;;;;;32.70;21.77;;;5.20;99.90;;;;;;5096418;28;20379;-77
2022/03/08 02:30:21;;;;;;;30.92;21.67;;;5.30;99.90;;;;;;5095665;28;20032;-77
2022/03/08 02:32:47;;;;;;;30.65;22.13;;;5.30;99.90;;;;;;5096180;28;20101;-78
2022/03/08 02:35:22;;;;;;;29.27;21.10;;;5.30;99.90;;;;;;5097336;28;20110;-78
2022/03/08 02:37:51;;;;;;;30.33;21.00;;;5.30;99.90;;;;;;5097251;28;20066;-78
2022/03/08 02:40:20;;;;;;;29.42;20.95;;;5.30;99.90;;;;;;5096468;28;20048;-77
2022/03/08 02:42:46;;;;;;;26.95;20.83;;;5.30;99.90;;;;;;5097231;28;20028;-77
2022/03/08 02:45:14;;;;;;;26.90;19.45;;;5.30;99.90;;;;;;5095947;28;20016;-77
2022/03/08 02:47:40;;;;;;;28.50;19.27;;;5.30;99.90;;;;;;5097414;28;20050;-77
2022/03/08 02:50:11;;;;;;;30.10;21.00;;;5.30;99.90;;;;;;5097190;28;20028;-78
2022/03/08 02:52:39;;;;;;;27.33;20.42;;;5.30;99.90;;;;;;5097349;28;20024;-77
2022/03/08 02:55:06;;;;;;;30.90;20.42;;;5.40;99.90;;;;;;5095852;28;20024;-77
2022/03/08 02:57:32;;;;;;;26.00;19.73;;;5.40;99.90;;;;;;5095985;28;20027;-77
2022/03/08 02:59:58;;;;;;;29.75;20.90;;;5.30;99.90;;;;;;5095580;28;20526;-78
2022/03/08 03:02:24;;;;;;;26.00;19.40;;;5.30;99.90;;;;;;5095974;28;20020;-77
2022/03/08 03:04:50;;;;;;;27.67;19.98;;;5.40;99.90;;;;;;5097235;28;20455;-77
2022/03/08 03:07:16;;;;;;;25.27;19.80;;;5.40;99.90;;;;;;5095869;28;20453;-77
2022/03/08 03:09:42;;;;;;;29.58;21.58;;;5.50;99.90;;;;;;5097063;28;20024;-77
2022/03/08 03:12:08;;;;;;;28.90;19.67;;;5.40;99.90;;;;;;5095738;28;20030;-77
2022/03/08 03:14:35;;;;;;;28.70;20.80;;;5.40;99.90;;;;;;5096798;28;20021;-77
2022/03/08 03:17:01;;;;;;;26.27;19.17;;;5.50;99.90;;;;;;5097108;28;20024;-77
2022/03/08 03:19:27;;;;;;;28.33;20.65;;;5.50;99.90;;;;;;5096988;28;20099;-77
2022/03/08 03:21:52;;;;;;;30.27;20.23;;;5.50;99.90;;;;;;5096726;28;20089;-77
2022/03/08 03:24:18;;;;;;;30.27;19.75;;;5.50;99.90;;;;;;5095698;28;20088;-78
2022/03/08 03:26:44;;;;;;;31.60;21.35;;;5.50;99.90;;;;;;5096854;28;20133;-77
2022/03/08 03:29:10;;;;;;;27.08;20.55;;;5.40;99.90;;;;;;5096805;28;20028;-78
2022/03/08 03:31:36;;;;;;;33.13;20.65;;;5.40;99.90;;;;;;5096912;28;20035;-78
2022/03/08 03:34:02;;;;;;;32.00;21.90;;;5.40;99.90;;;;;;5095374;28;20455;-77
2022/03/08 03:36:28;;;;;;;26.90;21.08;;;5.40;99.90;;;;;;5095681;28;20032;-77
2022/03/08 03:38:54;;;;;;;27.65;19.40;;;5.40;99.90;;;;;;5096584;28;20504;-78
2022/03/08 03:41:20;;;;;;;32.03;20.70;;;5.40;99.90;;;;;;5095460;28;20028;-77
2022/03/08 03:43:46;;;;;;;30.70;20.02;;;5.50;99.90;;;;;;5098477;28;20065;-78
2022/03/08 03:46:12;;;;;;;26.40;19.63;;;5.50;99.90;;;;;;5099122;28;20035;-77
2022/03/08 03:48:38;;;;;;;29.27;20.70;;;5.50;99.90;;;;;;5100838;28;20020;-78
2022/03/08 03:51:04;;;;;;;29.77;20.23;;;5.50;99.90;;;;;;5100346;28;20028;-77
2022/03/08 03:53:29;;;;;;;30.30;20.25;;;5.60;99.90;;;;;;5100459;28;20024;-77
2022/03/08 03:55:55;;;;;;;25.75;20.17;;;5.60;99.90;;;;;;5099037;28;20039;-78
2022/03/08 03:58:21;;;;;;;28.95;20.40;;;5.60;99.90;;;;;;5098615;28;20021;-77
2022/03/08 04:00:47;;;;;;;30.42;19.23;;;5.60;99.90;;;;;;5098693;28;20051;-78
2022/03/08 04:03:15;;;;;;;30.27;19.55;;;5.60;99.90;;;;;;5100295;28;20023;-78
2022/03/08 04:05:41;;;;;;;28.40;20.08;;;5.60;99.90;;;;;;5098940;28;20439;-78
2022/03/08 04:08:07;;;;;;;29.08;19.88;;;5.70;99.90;;;;;;5100403;28;20495;-78
2022/03/08 04:10:33;;;;;;;31.98;20.10;;;5.70;99.90;;;;;;5100058;28;20020;-78
2022/03/08 04:12:59;;;;;;;27.88;19.05;;;5.70;99.90;;;;;;5100105;28;20020;-78
2022/03/08 04:15:25;;;;;;;32.50;21.98;;;5.70;99.90;;;;;;5097338;28;20044;-77
2022/03/08 04:17:50;;;;;;;31.58;21.40;;;5.70;99.90;;;;;;5098566;28;20107;-77
2022/03/08 04:20:16;;;;;;;28.95;19.08;;;5.70;99.90;;;;;;5098417;28;20060;-78
2022/03/08 04:22:42;;;;;;;37.33;21.38;;;5.70;99.90;;;;;;5098507;28;20044;-78
2022/03/08 04:25:09;;;;;;;29.85;20.38;;;5.70;99.90;;;;;;5098468;28;20020;-78
2022/03/08 04:27:36;;;;;;;29.02;19.25;;;5.80;99.90;;;;;;5099785;28;20072;-78
2022/03/08 04:30:05;;;;;;;28.70;19.30;;;5.80;99.90;;;;;;5098025;28;20119;-78
2022/03/08 04:32:31;;;;;;;28.45;18.75;;;5.90;99.90;;;;;;5099814;28;20020;-78
2022/03/08 04:34:57;;;;;;;26.90;18.92;;;5.90;99.90;;;;;;5099380;28;20024;-78
2022/03/08 04:37:23;;;;;;;23.75;17.85;;;5.90;99.90;;;;;;5099810;28;20031;-77
2022/03/08 04:39:49;;;;;;;25.13;18.40;;;6.00;99.90;;;;;;5099058;28;20051;-78
2022/03/08 04:42:15;;;;;;;29.38;18.98;;;6.00;99.90;;;;;;5099448;28;20039;-78
2022/03/08 04:44:41;;;;;;;26.65;18.48;;;6.00;99.90;;;;;;5098196;28;20058;-77
2022/03/08 04:47:07;;;;;;;26.02;19.23;;;6.00;99.90;;;;;;5099262;28;20024;-77
2022/03/08 04:49:33;;;;;;;26.65;18.65;;;6.00;99.90;;;;;;5099370;28;20024;-77
2022/03/08 04:51:59;;;;;;;28.30;18.48;;;6.00;99.90;;;;;;5098013;28;20556;-77
2022/03/08 04:54:25;;;;;;;33.92;18.92;;;6.00;99.90;;;;;;5099085;28;20426;-78
2022/03/08 04:56:51;;;;;;;30.65;19.05;;;6.00;99.90;;;;;;5099199;28;20058;-77
2022/03/08 04:59:17;;;;;;;27.95;18.65;;;6.10;99.90;;;;;;5097494;28;20066;-78
2022/03/08 05:01:44;;;;;;;26.83;18.95;;;6.10;99.90;;;;;;5099169;28;20012;-78
2022/03/08 05:04:10;;;;;;;26.88;19.25;;;6.10;99.90;;;;;;5094253;28;20506;-78
2022/03/08 05:06:36;;;;;;;24.60;17.67;;;6.10;99.90;;;;;;5099150;28;20020;-77
2022/03/08 05:09:03;;;;;;;25.15;17.83;;;6.20;99.90;;;;;;5097505;28;20036;-78
2022/03/08 05:11:29;;;;;;;29.38;18.38;;;6.20;99.90;;;;;;5098773;28;20024;-78
2022/03/08 05:13:54;;;;;;;27.35;18.17;;;6.30;99.90;;;;;;5098538;28;20024;-78
2022/03/08 05:16:20;;;;;;;27.00;18.83;;;6.30;99.90;;;;;;5097588;28;20404;-78
2022/03/08 05:18:46;;;;;;;31.35;19.42;;;6.30;99.90;;;;;;5098687;28;20028;-77
2022/03/08 05:21:12;;;;;;;28.20;18.27;;;6.30;99.90;;;;;;5097243;28;20023;-77
2022/03/08 05:23:39;;;;;;;28.38;19.65;;;6.30;99.90;;;;;;5097593;28;20024;-78
2022/03/08 05:26:05;;;;;;;26.17;18.20;;;6.30;99.90;;;;;;5097260;28;20020;-77
2022/03/08 05:28:32;;;;;;;27.95;18.20;;;6.30;99.90;;;;;;5097054;28;20031;-78
2022/03/08 05:30:58;;;;;;;32.47;19.25;;;6.30;99.90;;;;;;5094710;28;20081;-78
2022/03/08 05:33:24;;;;;;;28.75;18.98;;;6.30;99.90;;;;;;5097129;28;20063;-78
2022/03/08 05:35:50;;;;;;;30.10;21.17;;;6.30;99.90;;;;;;5096952;28;20028;-77
2022/03/08 05:38:17;;;;;;;26.63;19.88;;;6.30;99.90;;;;;;5098209;28;20036;-78
2022/03/08 05:40:43;;;;;;;31.27;19.13;;;6.40;99.90;;;;;;5096993;28;20032;-78
2022/03/08 05:43:09;;;;;;;29.80;20.10;;;6.30;99.90;;;;;;5098211;28;20027;-78
2022/03/08 05:45:35;;;;;;;23.55;19.30;;;6.30;99.90;;;;;;5098168;28;20102;-77
2022/03/08 05:48:01;;;;;;;28.10;18.33;;;6.30;99.90;;;;;;5096709;28;20016;-78
2022/03/08 05:50:27;;;;;;;26.45;19.23;;;6.30;99.90;;;;;;5096902;28;20543;-78
2022/03/08 05:52:53;;;;;;;35.40;21.30;;;6.30;99.90;;;;;;5096973;28;20032;-78
2022/03/08 05:55:19;;;;;;;24.73;18.52;;;6.30;99.90;;;;;;5096743;28;20024;-77
2022/03/08 05:57:45;;;;;;;27.65;19.40;;;6.30;99.90;;;;;;5097917;28;20057;-78
2022/03/08 06:00:13;;;;;;;31.70;21.70;;;6.30;99.90;;;;;;5097663;28;20020;-78
2022/03/08 06:02:39;;;;;;;24.45;18.55;;;6.20;99.90;;;;;;5096574;28;20021;-78
2022/03/08 06:05:05;;;;;;;30.17;18.90;;;6.20;99.90;;;;;;5096407;28;20020;-78
2022/03/08 06:07:31;;;;;;;34.33;19.52;;;6.20;99.90;;;;;;5097669;28;20145;-77
2022/03/08 06:09:57;;;;;;;29.40;18.95;;;6.30;99.90;;;;;;5097713;28;20063;-78
2022/03/08 06:12:23;;;;;;;27.10;20.10;;;6.30;99.90;;;;;;5097736;28;20024;-78
2022/03/08 06:14:49;;;;;;;27.25;19.95;;;6.30;99.90;;;;;;5097552;28;20035;-78
2022/03/08 06:17:15;;;;;;;28.15;18.65;;;6.30;99.90;;;;;;5097792;28;20031;-78
2022/03/08 06:19:40;;;;;;;34.72;20.60;;;6.20;99.90;;;;;;5096484;28;20416;-78
2022/03/08 06:22:06;;;;;;;30.15;19.90;;;6.20;99.90;;;;;;5097663;28;20023;-77
2022/03/08 06:24:32;;;;;;;34.72;20.67;;;6.20;99.90;;;;;;5097639;28;20027;-78
2022/03/08 06:26:58;;;;;;;33.00;19.63;;;6.20;99.90;;;;;;5096074;28;20027;-79
2022/03/08 06:29:24;;;;;;;30.27;20.65;;;6.20;99.90;;;;;;5095868;28;20036;-77
2022/03/08 06:31:50;;;;;;;29.70;20.70;;;6.30;99.90;;;;;;5096157;28;20552;-77
2022/03/08 06:34:16;;;;;;;25.90;19.35;;;6.30;99.90;;;;;;5097871;28;20103;-77
2022/03/08 06:36:42;;;;;;;30.13;20.70;;;6.30;99.90;;;;;;5097262;28;20055;-78
2022/03/08 06:39:08;;;;;;;27.85;19.08;;;6.40;99.90;;;;;;5097209;28;20123;-77
2022/03/08 06:41:34;;;;;;;31.90;19.40;;;6.40;99.90;;;;;;5097180;28;20016;-77
2022/03/08 06:44:01;;;;;;;33.05;21.33;;;6.40;99.90;;;;;;5097211;28;20476;-78
2022/03/08 06:46:26;;;;;;;32.85;19.83;;;6.50;99.90;;;;;;5096224;28;20035;-79
2022/03/08 06:48:53;;;;;;;27.83;18.70;;;6.50;99.90;;;;;;5096034;28;20012;-77
2022/03/08 06:51:19;;;;;;;29.25;19.05;;;6.50;99.90;;;;;;5096148;28;20399;-78
2022/03/08 06:53:45;;;;;;;32.13;19.60;;;6.60;99.90;;;;;;5097222;28;20016;-78
2022/03/08 06:56:11;;;;;;;25.13;19.38;;;6.60;99.90;;;;;;5095816;28;20028;-78
2022/03/08 06:58:37;;;;;;;25.52;19.30;;;6.70;99.90;;;;;;5097116;28;20051;-78
2022/03/08 07:01:03;;;;;;;27.75;19.58;;;6.70;99.90;;;;;;5096941;28;20024;-78
2022/03/08 07:03:29;;;;;;;28.42;18.83;;;6.80;99.90;;;;;;5097374;28;20021;-78
2022/03/08 07:05:54;;;;;;;30.92;18.75;;;6.90;99.90;;;;;;5097082;28;20028;-78
2022/03/08 07:08:21;;;;;;;25.60;18.25;;;6.90;99.90;;;;;;5097318;28;20073;-78
2022/03/08 07:10:47;;;;;;;26.33;19.45;;;6.90;99.90;;;;;;5095651;28;20054;-78
2022/03/08 07:13:13;;;;;;;25.83;19.27;;;7.00;99.90;;;;;;5095495;28;20032;-77
2022/03/08 07:15:39;;;;;;;26.48;18.67;;;7.10;99.90;;;;;;5077734;28;20040;-78
2022/03/08 07:18:05;;;;;;;28.10;19.63;;;7.10;99.90;;;;;;5101307;28;20103;-78
2022/03/08 07:20:31;;;;;;;25.27;18.23;;;7.20;99.90;;;;;;5100825;28;20097;-78
2022/03/08 07:22:57;;;;;;;31.75;19.45;;;7.20;99.90;;;;;;5101503;28;20058;-79
2022/03/08 07:25:23;;;;;;;24.88;18.65;;;7.20;99.90;;;;;;5099832;28;20024;-78
2022/03/08 07:27:49;;;;;;;28.77;17.70;;;7.30;99.90;;;;;;5099568;28;20086;-78
2022/03/08 07:30:14;;;;;;;29.58;17.92;;;7.40;99.90;;;;;;5093992;28;20044;-78
2022/03/08 07:32:40;;;;;;;26.10;19.00;;;7.40;99.90;;;;;;5100409;28;20028;-78
2022/03/08 07:35:07;;;;;;;25.00;17.67;;;7.40;99.90;;;;;;5099234;28;20020;-77
2022/03/08 07:37:37;;;;;;;25.60;18.77;;;7.50;99.90;;;;;;5100718;28;20024;-76
2022/03/08 07:40:06;;;;;;;28.17;17.85;;;7.50;99.90;;;;;;5093139;28;20440;-77
2022/03/08 07:42:32;;;;;;;26.02;16.67;;;7.70;99.90;;;;;;5098758;28;20496;-77
2022/03/08 07:44:58;;;;;;;26.90;16.63;;;7.70;99.90;;;;;;5093458;28;20024;-77
2022/03/08 07:47:24;;;;;;;25.10;17.35;;;7.70;99.90;;;;;;5089376;28;20024;-76
2022/03/08 07:49:50;;;;;;;23.23;17.20;;;7.80;99.90;;;;;;5099095;28;20467;-77
2022/03/08 07:52:16;;;;;;;27.67;16.40;;;7.90;99.90;;;;;;5099148;28;20070;-77
2022/03/08 07:54:42;;;;;;;24.77;15.98;;;8.00;99.90;;;;;;5098979;28;20055;-77
2022/03/08 07:57:08;;;;;;;25.10;16.38;;;8.10;99.90;;;;;;5098710;28;20020;-77
2022/03/08 07:59:34;;;;;;;28.67;15.90;;;8.20;99.90;;;;;;5084242;28;20024;-76
2022/03/08 08:02:01;;;;;;;23.85;16.20;;;8.20;99.90;;;;;;5079261;28;20107;-77
2022/03/08 08:04:27;;;;;;;22.27;16.48;;;8.30;99.90;;;;;;5096908;28;20012;-77
2022/03/08 08:06:52;;;;;;;22.80;16.35;;;8.30;99.90;;;;;;5098353;28;20105;-77
2022/03/08 08:09:18;;;;;;;25.05;17.58;;;8.40;99.90;;;;;;5098232;28;20032;-77
2022/03/08 08:11:44;;;;;;;22.25;15.07;;;8.50;99.90;;;;;;5098016;28;20081;-77
2022/03/08 08:14:10;;;;;;;28.33;16.70;;;8.50;99.90;;;;;;5099102;28;20131;-77
2022/03/08 08:16:36;;;;;;;27.67;16.27;;;8.60;99.90;;;;;;5087405;28;20020;-77
2022/03/08 08:19:02;;;;;;;24.45;15.55;;;8.70;99.90;;;;;;5092627;28;20057;-78
2022/03/08 08:21:28;;;;;;;26.45;17.05;;;8.70;99.90;;;;;;5099931;28;20020;-76
2022/03/08 08:23:54;;;;;;;23.67;16.38;;;8.70;99.90;;;;;;5099789;28;20361;-77
2022/03/08 08:26:20;;;;;;;24.60;16.42;;;8.80;99.90;;;;;;5099903;28;20080;-78
2022/03/08 08:28:46;;;;;;;24.25;15.40;;;8.90;99.90;;;;;;5097410;28;20107;-77
2022/03/08 08:31:13;;;;;;;24.30;15.85;;;8.90;99.90;;;;;;5099070;28;20024;-79
2022/03/08 08:33:38;;;;;;;22.45;15.77;;;9.00;99.90;;;;;;5099642;28;20027;-77
2022/03/08 08:36:04;;;;;;;26.35;16.35;;;9.10;99.90;;;;;;5098274;28;20024;-78
2022/03/08 08:38:30;;;;;;;21.73;15.70;;;9.20;99.90;;;;;;5099161;28;20062;-74
2022/03/08 08:40:56;;;;;;;23.50;15.65;;;9.30;99.90;;;;;;5098194;28;20097;-75
2022/03/08 08:43:22;;;;;;;26.20;16.63;;;9.30;99.90;;;;;;5097696;28;20038;-75
2022/03/08 08:45:52;;;;;;;24.33;16.65;;;9.40;99.90;;;;;;5099447;28;20048;-75
2022/03/08 08:48:21;;;;;;;23.85;15.38;;;9.50;99.90;;;;;;5098959;28;20028;-75
2022/03/08 08:50:47;;;;;;;20.63;15.85;;;9.60;99.90;;;;;;5097156;28;20024;-75
2022/03/08 08:53:13;;;;;;;24.45;15.70;;;9.70;99.90;;;;;;5096935;28;20119;-76
2022/03/08 08:55:39;;;;;;;23.65;16.52;;;9.90;99.90;;;;;;5098387;28;20020;-75
2022/03/08 08:58:05;;;;;;;24.10;15.32;;;10.00;99.90;;;;;;5096037;28;20057;-76
2022/03/08 09:00:32;;;;;;;20.17;14.93;;;10.10;99.90;;;;;;5098166;28;20020;-75
2022/03/08 09:02:58;;;;;;;26.55;16.67;;;10.30;99.90;;;;;;5097475;28;20070;-75
2022/03/08 09:05:24;;;;;;;21.63;14.35;;;10.30;99.90;;;;;;5099222;28;20028;-76
2022/03/08 09:07:50;;;;;;;20.05;14.50;;;10.50;99.90;;;;;;5097612;28;20023;-76
2022/03/08 09:10:19;;;;;;;18.77;14.15;;;10.60;99.90;;;;;;5097681;28;20423;-76
2022/03/08 09:12:49;;;;;;;22.88;14.07;;;10.70;99.90;;;;;;5099059;28;20476;-75
2022/03/08 09:15:16;;;;;;;;;;;10.80;99.90;;;;;;5098278;28;20028;-75
2022/03/08 09:17:42;;;;;;;18.80;13.35;;;10.80;99.90;;;;;;5097446;28;19915;-75
2022/03/08 09:20:09;;;;;;;18.75;14.65;;;10.90;99.90;;;;;;5098473;28;20102;-76
2022/03/08 09:22:36;;;;;;;25.33;15.30;;;10.90;99.90;;;;;;5097355;28;20511;-74
2022/03/08 09:25:02;;;;;;;66.32;28.77;;;10.90;99.90;;;;;;5098731;28;20024;-75
2022/03/08 09:27:29;;;;;;;20.52;13.10;;;10.90;99.90;;;;;;5098216;28;20099;-76
2022/03/08 09:29:55;;;;;;;22.77;14.48;;;10.90;99.90;;;;;;5096965;28;20028;-73
2022/03/08 09:32:21;;;;;;;19.00;14.50;;;11.00;99.90;;;;;;5098515;28;20512;-73
2022/03/08 09:34:47;;;;;;;20.70;13.55;;;11.00;99.90;;;;;;5098685;28;20051;-73
2022/03/08 09:37:12;;;;;;;19.20;13.18;;;11.10;99.90;;;;;;5097405;28;20028;-72
2022/03/08 09:39:38;;;;;;;20.13;14.60;;;11.10;99.90;;;;;;5097523;28;20093;-73
2022/03/08 09:42:05;;;;;;;20.55;13.10;;;11.20;99.90;;;;;;5097151;28;20059;-73
2022/03/08 09:44:31;;;;;;;15.85;11.65;;;11.20;99.90;;;;;;5096920;28;20077;-72
2022/03/08 09:46:57;;;;;;;24.15;12.25;;;11.10;99.90;;;;;;5098562;28;20031;-73
2022/03/08 09:49:22;;;;;;;19.10;12.55;;;11.20;99.90;;;;;;5098360;28;20028;-73
2022/03/08 09:51:52;;;;;;;21.42;11.77;;;11.30;99.90;;;;;;5098539;28;20035;-73
2022/03/08 09:54:18;;;;;;;18.17;11.98;;;11.30;99.90;;;;;;5087663;28;20036;-73
2022/03/08 09:56:44;;;;;;;17.85;10.98;;;11.20;99.90;;;;;;5098293;28;20024;-73
2022/03/08 09:59:13;;;;;;;20.20;11.75;;;11.30;99.90;;;;;;5096601;28;20024;-73
2022/03/08 10:01:39;;;;;;;19.10;13.25;;;11.30;99.90;;;;;;5098133;28;20016;-73
2022/03/08 10:04:09;;;;;;;18.13;11.93;;;11.40;99.90;;;;;;5092591;28;20062;-77
2022/03/08 10:06:41;;;;;;;20.52;12.40;;;11.40;99.90;;;;;;5092893;28;20021;-79
2022/03/08 10:09:19;;;;;;;18.98;13.43;;;11.50;99.90;;;;;;5082808;28;20051;-78
2022/03/08 10:11:49;;;;;;;16.17;11.90;;;11.60;99.90;;;;;;5091603;28;20039;-79
2022/03/08 10:14:36;;;;;;;14.98;11.18;;;11.70;99.90;;;;;;5096743;28;20052;-78
2022/03/08 10:17:02;;;;;;;15.38;11.15;;;11.60;99.90;;;;;;5096895;28;20446;-77
2022/03/08 10:19:28;;;;;;;17.50;11.85;;;11.60;99.90;;;;;;5096682;28;20074;-80
2022/03/08 10:21:57;;;;;;;17.08;11.80;;;11.70;99.90;;;;;;5096849;28;20020;-80
2022/03/08 10:24:31;;;;;;;18.42;11.95;;;11.70;99.90;;;;;;5097867;28;20016;-77
2022/03/08 10:27:00;;;;;;;22.40;14.20;;;11.80;99.90;;;;;;5096683;28;20028;-77
2022/03/08 10:29:37;;;;;;;16.80;12.23;;;12.00;99.90;;;;;;5097562;28;20048;-77
2022/03/08 10:32:19;;;;;;;14.60;11.82;;;12.20;99.90;;;;;;5097858;28;20024;-78
2022/03/08 10:34:47;;;;;;;16.83;12.10;;;12.30;99.90;;;;;;5096795;28;20430;-78
2022/03/08 10:37:20;;;;;;;16.80;12.20;;;12.30;99.90;;;;;;5097321;28;20020;-77
2022/03/08 10:39:57;;;;;;;19.63;13.38;;;12.30;99.90;;;;;;5096152;28;20043;-76
2022/03/08 10:42:27;;;;;;;21.67;13.40;;;12.30;99.90;;;;;;5097423;28;20012;-77
2022/03/08 10:45:09;;;;;;;16.42;12.07;;;12.50;99.90;;;;;;5097194;28;20024;-78
2022/03/08 10:47:42;;;;;;;20.75;12.02;;;12.50;99.90;;;;;;5096022;28;20171;-79
2022/03/08 10:50:10;;;;;;;16.92;10.93;;;12.50;99.90;;;;;;5096269;28;20078;-77
2022/03/08 10:52:41;;;;;;;16.85;11.85;;;12.40;99.90;;;;;;5097266;28;20061;-77
2022/03/08 10:55:19;;;;;;;23.17;11.82;;;12.30;99.90;;;;;;5095958;28;20028;-78
2022/03/08 10:57:50;;;;;;;18.17;11.57;;;12.30;99.90;;;;;;5095399;28;20020;-76
2022/03/08 11:00:23;;;;;;;16.05;11.32;;;12.30;99.90;;;;;;5095774;28;20028;-78
2022/03/08 11:03:00;;;;;;;13.88;10.20;;;12.40;99.90;;;;;;5095817;28;20083;-77
2022/03/08 11:05:30;;;;;;;15.85;11.23;;;12.50;99.90;;;;;;5096228;28;20050;-77
2022/03/08 11:07:57;;;;;;;14.18;11.02;;;12.60;99.90;;;;;;5096031;28;20046;-77
2022/03/08 11:10:25;;;;;;;17.38;11.35;;;12.60;99.90;;;;;;5096899;28;20034;-78
2022/03/08 11:12:52;;;;;;;16.23;11.70;;;12.70;99.90;;;;;;5096671;28;20024;-78
2022/03/08 11:15:19;;;;;;;15.93;10.55;;;12.70;99.90;;;;;;5095779;28;20081;-77
2022/03/08 11:17:50;;;;;;;15.02;11.23;;;12.70;99.90;;;;;;5095848;28;20111;-77
2022/03/08 11:20:18;;;;;;;14.38;10.48;;;12.70;99.90;;;;;;5095496;28;20085;-76
2022/03/08 11:22:47;;;;;;;13.88;9.93;;;12.80;99.90;;;;;;5096389;28;20024;-77
2022/03/08 11:25:16;;;;;;;13.88;10.13;;;12.90;99.90;;;;;;5097013;28;20472;-78
2022/03/08 11:27:47;;;;;;;15.02;11.18;;;12.90;99.90;;;;;;5095762;28;20024;-79
2022/03/08 11:30:17;;;;;;;13.38;10.20;;;13.10;99.90;;;;;;5096891;28;20028;-78
2022/03/08 11:33:12;;;;;;;15.60;10.90;;;13.10;99.90;;;;;;5095994;28;20115;-76
2022/03/08 11:35:53;;;;;;;17.38;11.50;;;13.20;99.90;;;;;;5077663;28;20032;-77
2022/03/08 11:38:19;;;;;;;;;;;13.30;99.90;;;;;;5097287;28;20071;-76
2022/03/08 11:40:57;;;;;;;14.82;9.88;;;13.30;99.90;;;;;;5096879;28;19912;-77
2022/03/08 11:43:43;;;;;;;14.88;9.35;;;13.40;99.90;;;;;;5095019;28;20020;-76
2022/03/08 11:46:14;;;;;;;18.35;12.13;;;13.40;99.90;;;;;;5090542;28;20067;-77
2022/03/08 11:48:56;;;;;;;14.18;9.35;;;13.30;99.90;;;;;;5083500;28;20019;-76
2022/03/08 11:51:23;;;;;;;14.68;8.52;;;13.40;99.90;;;;;;5096643;28;20086;-77
2022/03/08 11:54:01;;;;;;;10.95;9.02;;;13.40;99.90;;;;;;5096919;28;20028;-78
2022/03/08 11:56:27;;;;;;;14.73;9.70;;;13.40;99.90;;;;;;5095224;28;20031;-77
2022/03/08 11:58:53;;;;;;;13.30;8.77;;;13.50;99.90;;;;;;5095215;28;20031;-76
2022/03/08 12:01:32;;;;;;;13.90;9.23;;;13.60;99.90;;;;;;5095265;28;20557;-76
2022/03/08 12:04:07;;;;;;;15.07;9.50;;;13.70;99.90;;;;;;5098750;28;20416;-76
2022/03/08 12:09:21;;;;;;;13.65;7.57;;;13.90;99.90;;;;;;5100325;28;20550;-76
2022/03/08 12:12:02;;;;;;;11.65;8.13;;;13.90;99.90;;;;;;5099021;28;20027;-77
2022/03/08 12:14:30;;;;;;;13.93;8.32;;;14.00;99.90;;;;;;5098466;28;20392;-76
2022/03/08 12:17:10;;;;;;;14.48;8.52;;;14.10;99.90;;;;;;5098749;28;20111;-77
2022/03/08 12:19:45;;;;;;;11.52;7.18;;;14.10;99.90;;;;;;5099878;28;20554;-75
2022/03/08 12:22:16;;;;;;;21.25;10.88;;;14.10;99.90;;;;;;5100457;28;20099;-78
2022/03/08 12:24:47;;;;;;;11.77;8.68;;;14.20;99.90;;;;;;5098465;28;20028;-76
2022/03/08 12:27:13;;;;;;;;;;;14.20;99.90;;;;;;5099123;28;20042;-76
2022/03/08 12:30:01;;;;;;;14.85;8.27;;;14.20;99.90;;;;;;5098092;28;19904;-76
2022/03/08 12:32:35;;;;;;;11.02;7.95;;;14.20;99.90;;;;;;5098587;28;20571;-78
2022/03/08 12:35:15;;;;;;;14.30;9.48;;;14.30;99.90;;;;;;5098616;28;20058;-78
2022/03/08 12:37:57;;;;;;;11.83;7.83;;;14.40;99.90;;;;;;5100017;28;20062;-78
2022/03/08 12:40:30;;;;;;;11.30;7.45;;;14.40;99.90;;;;;;5098294;28;20041;-78